Etusivu
METAR-TAF:

METAR-TAF

Lentoasemat :

Helena, Montana, Yhdysvallat

Leveyspiiri: 46-36-20N, Pituuspiiri: 111-57-49W, korkeus merenpinnasta: 1180 m

Tämänhetkinen sää

Tämä raportti tehtiin 40 minuuttia sitten, kello 15.53 UTC
tyyntä
Lämpötila 9°C
Kosteus 57%
Ilmanpaine 1017 hPa
Näkyvyys: 16.1 km
Muutamia pilviä 5500 ft:n korkeudessa

METAR: KHLN 181553Z 00000KT 10SM FEW055 09/01 A3004 RMK AO2 SLP185 T00890006

Aika: 09:33 (16:33 UTC)

Sääennuste

Tämä raportti tehtiin 2 tuntia ja 31 minuuttia sitten, kello 14.02 UTC
Ennuste voimassa 18. päivästä klo 14 UTC - 19. päivään klo 12 UTC
Tuuli 6 kn eri suunnista
Näkyvyys: 10 km
Hajonneita pilviä 6000 ft:n korkeudessa
Pilvistä 7000 ft:n korkeudessa
From 18. päivästä klo 2100 UTC
Tuuli 6 kn eri suunnista
Näkyvyys: 10 km
Hajanaisia pilviä 7000 ft:n korkeudessa
Hajonneita pilviä 9000 ft:n korkeudessa

TAF: KHLN 181402Z 1814/1912 VRB06KT P6SM BKN060 OVC070 FM182100 VRB06KT P6SM SCT070 BKN090

Säähavainnot ja -ennusteet yli 4000 lentoasemalta (METAR- ja TAF-raportit).

Käytössä olevat sääasemat on merkitty karttaan keltaisilla ja punaisilla pisteillä.

Aseta hiiri pisteen päälle nähdäksesi sääaseman nimen.

Klikkaa sitten nähdäksesi säähavainnot ja -ennusteet.

Kartan vaihtaminen: klikkaa mustalla rastilla varustettuja vihreitä pisteitä, niin voit zoomata sisään; viivalla varustettua vihreää pistettä, niin voit zoomata ulos tai vihreitä nuolia, niin pääset viereisille kartoille.


METAR-TAF: